Aviation Digital Data Service (ADDS)

Output produced by METARs form (1702 UTC 29 May 2017)
found at http://www.aviationweather.gov/adds/metars/
 
KMIV 291654Z AUTO 06005KT 8SM OVC011 16/16 A2995 RMK AO2 RAB06E22 CIG 007V014 SLP141 P0000 T01560156
KMIV 291645Z 2917/3012 05005KT 5SM BR OVC010 
     FM291900 06008KT P6SM BKN015 
     FM300000 09010KT P6SM OVC012 
     FM300200 09006KT 4SM BR BKN008 
     FM300500 09004KT 2SM -DZ BR BKN003